Tiempo atmosférico en la estación meteorológica de Teror, Las Palmas (683 m.)



Fecha
DESCASC
Temp. máxima en grados centígrados (hora)
DESCASC
Temp. mínima en grados centígrados (hora)
DESCASC
Temp. media en grados centígrados
DESCASC
Racha de viento máxima en m/sg (hora)
DESCASC
Velocidad máxima media en intervalos de 10 minutos(hora)
DESCASC
Precipitaciones diarias en mm
DESCASC
Precipitaciones de 00:00 a 06:00 en mm
DESCASC
Precipitaciones de 06:00 a 12:00 en mm
DESCASC
Precipitaciones de 12:00 a 18:00 en mm
DESCASC
Precipitaciones de 18:00 a 24:00 en mm
DESCASC
29-03-2020 17.2 (10:40) 6.7 (06:50) 12 4.72 (17:50) 2.78 (17:20) 0 0 0 0 0
28-03-2020 17.5 (13:50) 6.6 (23:30) 12 7.78 (00:10) 3.89 (04:20) 0.4 0.2 0.2 0 0
27-03-2020 17.7 (14:30) 9.4 (04:10) 13.6 8.33 (14:30) 3.61 (13:40) 14.2 1 0.8 0 12.4
26-03-2020 15.9 (11:00) 6.7 (00:00) 11.3 5.28 (11:20) 2.78 (16:10) 0 0 0 0 0
25-03-2020 16.4 (11:10) 7.8 (00:00) 12.1 7.5 (12:20) 3.61 (12:10) 0 0 0 0 0
24-03-2020 16.7 (13:30) 10.2 (00:00) 13.5 11.67 (00:10) 4.72 (00:10) 1 0.8 0.2 0 0
23-03-2020 13 (13:50) 8.5 (00:00) 10.8 15.83 (05:50) 8.06 (07:00) 15.6 4.8 4.8 2.4 3.6
22-03-2020 17.7 (14:50) 9.4 (07:20) 13.6 10.56 (19:10) 4.44 (23:40) 5.2 0 1.2 0 4
21-03-2020 14.3 (17:20) 9.2 (00:00) 11.8 7.5 (15:20) 3.89 (22:10) 1.2 0 0.4 0 0.8
20-03-2020 15.8 (13:50) 11 (00:00) 13.4 9.44 (07:30) 4.72 (07:30) 6.6 1.2 0.4 0.8 4.2
19-03-2020 16.5 (14:20) 11.1 (00:00) 13.8 13.89 (10:20) 5.83 (02:20) 3.4 1.2 1.4 0 0.8
18-03-2020 15.3 (14:00) 8.9 (00:00) 12.1 13.33 (19:10) 5.83 (18:40) 3.8 2.4 1 0 0.4
17-03-2020 13.4 (14:40) 8.6 (00:00) 11 8.61 (11:50) 4.17 (04:40) 10.4 3.8 2.4 0.4 3.8
16-03-2020 16.4 (12:30) 10 (00:00) 13.2 9.44 (21:40) 4.72 (05:00) 5.4 1.8 1 0.4 2.2
15-03-2020 16.6 (14:30) 9.9 (00:00) 13.3 9.17 (19:00) 4.72 (17:00) 2 1.8 0 0 0.2
14-03-2020 15.6 (11:50) 10.5 (00:00) 13.1 6.67 (23:10) 3.61 (12:30) 0 0 0 0 0
13-03-2020 18.6 (12:40) 8.6 (02:00) 13.6 4.72 (14:10) 2.78 (14:50) 0 0 0 0 0
12-03-2020 27.9 (13:00) 11.2 (00:00) 19.5 7.22 (12:50) 3.89 (12:30) 0 0 0 0 0
11-03-2020 27.8 (12:30) 10 (00:00) 18.9 7.5 (12:20) 4.44 (12:10) 0 0 0 0 0
10-03-2020 25.5 (09:50) 10 (00:00) 17.8 4.17 (12:50) 2.78 (19:50) 0 0 0 0 0
09-03-2020 25.4 (12:10) 10 (00:00) 17.7 10.56 (10:50) 5 (11:30) 0 0 0 0 0
08-03-2020 24.1 (12:10) 8.4 (00:00) 16.3 5.83 (00:10) 3.06 (12:20) 0 0 0 0 0
07-03-2020 17.1 (10:50) 10.6 (00:00) 13.9 6.67 (13:40) 3.33 (13:40) 0 0 0 0 0
06-03-2020 13.7 (17:20) 10.6 (00:00) 12.2 7.78 (07:30) 4.17 (07:00) 12.4 9 3.4 0 0
05-03-2020 19.2 (11:30) 9.3 (00:00) 14.3 6.11 (12:50) 3.33 (14:10) 0.2 0 0 0 0.2
04-03-2020 26.4 (11:20) 11.2 (00:00) 18.8 4.44 (12:00) 2.5 (22:20) 0 0 0 0 0
03-03-2020 20.1 (15:00) 8.2 (00:00) 14.2 5 (14:10) 2.5 (14:10) 0 0 0 0 0
02-03-2020 19.2 (10:40) 9.9 (00:00) 14.6 6.94 (11:50) 3.61 (13:20) 0 0 0 0 0
01-03-2020 21.5 (14:40) 7.7 (00:00) 14.6 5.83 (16:10) 3.61 (16:00) 0 0 0 0 0
29-02-2020 21.2 (14:50) 6.7 (00:00) 14 7.22 (01:40) 3.61 (02:30) 0 0 0 0 0

Gráficas

Temp. máximas Temp. mínimas Temp. medias Precipitaciones Rachas de viento máximas Velocidades máximas media en intervalos de 10 minutos

Datos horarios

Fecha y hora oficial Temperatura (ºC) Velocidad del viento (km/h) Dirección del viento Racha (km/h) Dirección de racha Precipitación (mm) Presión (hPa) Tendencia (hPa) Humedad (%)
2020-03-29 23:00:00 9.2 4 Noroeste 8 Oeste 0 -- -- 97
2020-03-29 22:00:00 9.9 4 Oeste 6 Oeste 0 -- -- 95
2020-03-29 21:00:00 12.4 3 Norte 10 Norte 0 -- -- 93
2020-03-29 20:00:00 12.6 7 Norte 15 Noroeste 0 -- -- 91
2020-03-29 19:00:00 13.9 6 Norte 15 Norte 0 -- -- 83
2020-03-29 18:00:00 15.4 6 Nordeste 17 Nordeste 0 -- -- 77
2020-03-29 17:00:00 15.8 9 Nordeste 14 Nordeste 0 -- -- 75
2020-03-29 16:00:00 14.9 5 Nordeste 13 Norte 0 -- -- 77
2020-03-29 15:00:00 14.3 8 Norte 15 Nordeste 0 -- -- 81
2020-03-29 14:00:00 15.2 6 Nordeste 17 Nordeste 0 -- -- 76
2020-03-29 13:00:00 15.3 9 Nordeste 17 Nordeste 0 -- -- 76
2020-03-29 12:00:00 15.4 6 Nordeste 14 Norte 0 -- -- 73
2020-03-29 11:00:00 15.1 6 Este 13 Nordeste 0 -- -- 76
2020-03-29 10:00:00 16.2 6 Este 10 Este 0 -- -- 71
2020-03-29 09:00:00 15.1 2 Este 5 Sudoeste 0 -- -- 74
2020-03-29 08:00:00 7 4 Oeste 10 Oeste 0 -- -- 97
2020-03-29 07:00:00 6.7 7 Oeste 9 Oeste 0 -- -- 97
2020-03-29 06:00:00 6.8 7 Oeste 9 Oeste 0 -- -- 97
2020-03-29 05:00:00 7.1 4 Oeste 8 Oeste 0 -- -- 98
2020-03-29 04:00:00 7.5 6 Oeste 9 Oeste 0 -- -- 96
2020-03-29 00:00:00 7.3 5 Oeste 8 Oeste 0 -- -- 89
2020-03-28 23:00:00 7 4 Oeste 9 Oeste 0 -- -- 94
2020-03-28 22:00:00 7.6 7 Oeste 11 Oeste 0 -- -- 94
2020-03-28 21:00:00 8 5 Oeste 9 Oeste 0 -- -- 94
2020-03-28 20:00:00 9.1 7 Oeste 9 Oeste 0 -- -- 95
2020-03-28 19:00:00 11.5 4 Noroeste 8 Norte 0 -- -- 89
2020-03-28 18:00:00 13.1 6 Norte 13 Noroeste 0 -- -- 80
2020-03-28 17:00:00 14.3 8 Norte 18 Norte 0 -- -- 78
2020-03-28 16:00:00 14.4 8 Norte 21 Norte 0 -- -- 76
2020-03-28 15:00:00 16 10 Norte 22 Norte 0 -- -- 73
2020-03-28 14:00:00 16.8 10 Norte 22 Norte 0 -- -- 72
2020-03-28 13:00:00 17.2 12 Norte 24 Norte 0 -- -- 68
2020-03-28 12:00:00 16.9 11 Norte 24 Norte 0 -- -- 68
2020-03-28 11:00:00 16.3 10 Norte 20 Norte 0 -- -- 74
2020-03-28 10:00:00 15.3 10 Noroeste 20 Noroeste 0 -- -- 74
2020-03-28 09:00:00 14.7 5 Norte 19 Sudoeste 0 -- -- 68
2020-03-28 08:00:00 13.4 5 Oeste 22 Oeste 0 -- -- 79
2020-03-28 07:00:00 10.2 12 Oeste 24 Sudoeste 0.2 -- -- 90
2020-03-28 06:00:00 10.2 9 Oeste 25 Oeste 0 -- -- 92
2020-03-28 05:00:00 10.2 10 Sudoeste 28 Oeste 0 -- -- 90
2020-03-28 04:00:00 10.2 12 Oeste 28 Oeste 0 -- -- 89
2020-03-28 03:00:00 10.4 8 Oeste 27 Oeste 0 -- -- 93
2020-03-28 02:00:00 10.9 10 Oeste 25 Oeste 0 -- -- 90
2020-03-28 01:00:00 10.8 7 Sur 28 Noroeste 0.2 -- -- 97
2020-03-28 00:00:00 11.2 10 Norte 27 Noroeste 8.2 -- -- 97
2020-03-27 23:00:00 11.1 9 Noroeste 17 Norte 1.6 -- -- 97
2020-03-27 22:00:00 11.1 5 Noroeste 12 Noroeste 1.8 -- -- 97
2020-03-27 21:00:00 11.3 6 Noroeste 9 Noroeste 0.4 -- -- 97
2020-03-27 20:00:00 11.3 2 Oeste 4 Sudoeste 0 -- -- 94
2020-03-27 19:00:00 12.3 0 Calma 9 Este 0.4 -- -- 92
2020-03-27 18:00:00 13.2 4 Este 12 Nordeste 0 -- -- 88
2020-03-27 17:00:00 13.6 8 Este 17 Norte 0 -- -- 86
2020-03-27 16:00:00 17 11 Norte 22 Norte 0 -- -- 74
2020-03-27 15:00:00 17.4 13 Norte 30 Noroeste 0 -- -- 72
2020-03-27 14:00:00 17.2 10 Norte 23 Noroeste 0 -- -- 74
2020-03-27 13:00:00 16.5 10 Noroeste 24 Norte 0 -- -- 72
2020-03-27 12:00:00 16 8 Noroeste 25 Norte 0 -- -- 75
2020-03-27 11:00:00 15.3 6 Norte 24 Norte 0 -- -- 80
2020-03-27 10:00:00 11.4 11 Norte 22 Noroeste 0.6 -- -- 95
2020-03-27 09:00:00 12 6 Norte 19 Norte 0 -- -- 91
2020-03-27 08:00:00 10.5 9 Oeste 20 Noroeste 0.2 -- -- 93
2020-03-27 07:00:00 10.5 6 Sudoeste 23 Sudoeste 0 -- -- 91
2020-03-27 06:00:00 10.4 8 Oeste 24 Oeste 0 -- -- 89
2020-03-27 05:00:00 9.8 9 Sudoeste 25 Sudoeste 1 -- -- 94
2020-03-27 04:00:00 9.5 11 Oeste 19 Oeste 0 -- -- 91
2020-03-27 03:00:00 10.8 8 Oeste 16 Oeste 0 -- -- 73
2020-03-27 02:00:00 10.1 8 Oeste 18 Oeste 0 -- -- 84
2020-03-27 01:00:00 10.1 8 Oeste 15 Sudoeste 0 -- -- 83
2020-03-27 00:00:00 10.2 5 Oeste 15 Oeste 0 -- -- 91
2020-03-26 23:00:00 10.7 8 Oeste 17 Oeste 0 -- -- 92
2020-03-26 22:00:00 10.5 5 Oeste 13 Oeste 0 -- -- 88
2020-03-26 21:00:00 10.7 4 Noroeste 9 Norte 0 -- -- 94
2020-03-26 20:00:00 11.1 4 Noroeste 9 Noroeste 0 -- -- 93
2020-03-26 19:00:00 11.3 5 Norte 9 Noroeste 0 -- -- 88
2020-03-26 18:00:00 12.8 5 Nordeste 12 Este 0 -- -- 81
2020-03-26 17:00:00 13.2 5 Noroeste 18 Nordeste 0 -- -- 79
2020-03-26 16:00:00 12.3 10 Norte 16 Norte 0 -- -- 84
2020-03-26 15:00:00 13.3 6 Nordeste 12 Nordeste 0 -- -- 80
2020-03-26 14:00:00 12.5 5 Nordeste 13 Nordeste 0 -- -- 86
2020-03-26 13:00:00 12.3 9 Norte 18 Nordeste 0 -- -- 88
2020-03-26 12:00:00 13.7 10 Norte 19 Nordeste 0 -- -- 79
2020-03-26 11:00:00 15.9 7 Nordeste 17 Este 0 -- -- 67
2020-03-26 10:00:00 14.8 6 Norte 13 Norte 0 -- -- 78
2020-03-26 09:00:00 15.4 5 Nordeste 10 Nordeste 0 -- -- 61
2020-03-26 08:00:00 11.2 0 Calma 6 Sudoeste 0 -- -- 86
2020-03-26 07:00:00 6.7 4 Sudoeste 5 Oeste 0 -- -- 98
2020-03-26 06:00:00 7.5 4 Oeste 7 Noroeste 0 -- -- 95
2020-03-26 05:00:00 8 3 Sudoeste 5 Sudoeste 0 -- -- 96
2020-03-26 04:00:00 9.4 6 Sudoeste 8 Sudoeste 0 -- -- 94
2020-03-26 03:00:00 9.9 4 Sudoeste 6 Sudoeste 0 -- -- 96
2020-03-26 02:00:00 10 3 Oeste 7 Oeste 0 -- -- 94
2020-03-26 01:00:00 10.1 2 Sudoeste 5 Sudoeste 0 -- -- 91
2020-03-26 00:00:00 10.1 2 Sudoeste 8 Sur 0 -- -- 89
2020-03-25 23:00:00 7.8 5 Sudoeste 9 Oeste 0 -- -- 97
2020-03-25 22:00:00 9.7 4 Oeste 10 Noroeste 0 -- -- 94
2020-03-25 21:00:00 10.9 5 Norte 12 Norte 0 -- -- 93
2020-03-25 20:00:00 11 3 Noroeste 9 Noroeste 0 -- -- 93
2020-03-25 19:00:00 11.6 5 Norte 13 Norte 0 -- -- 88
2020-03-25 18:00:00 13.6 6 Norte 15 Norte 0 -- -- 79
2020-03-25 17:00:00 13.4 7 Norte 17 Norte 0 -- -- 78
2020-03-25 16:00:00 13.8 9 Norte 19 Norte 0 -- -- 82
2020-03-25 15:00:00 14.3 8 Norte 18 Norte 0 -- -- 77
2020-03-25 14:00:00 14.2 9 Norte 22 Nordeste 0 -- -- 75
2020-03-25 13:00:00 15.7 12 Norte 27 Norte 0 -- -- 71
2020-03-25 12:00:00 14.6 10 Norte 20 Norte 0 -- -- 73
2020-03-25 11:00:00 15.5 7 Norte 19 Norte 0 -- -- 69
2020-03-25 10:00:00 14.2 7 Norte 18 Noroeste 0 -- -- 70
2020-03-25 09:00:00 14.2 2 Oeste 9 Oeste 0 -- -- 63
2020-03-25 08:00:00 11.7 4 Oeste 9 Oeste 0 -- -- 79
2020-03-25 07:00:00 10.8 6 Noroeste 13 Oeste 0 -- -- 90
2020-03-25 06:00:00 10.2 4 Oeste 12 Oeste 0 -- -- 91
2020-03-25 05:00:00 10.9 7 Oeste 15 Sudoeste 0 -- -- 91
2020-03-25 04:00:00 11 6 Noroeste 19 Oeste 0 -- -- 94
2020-03-25 03:00:00 11.2 10 Oeste 19 Oeste 0 -- -- 89
2020-03-25 02:00:00 11.3 8 Noroeste 21 Noroeste 0 -- -- 93
2020-03-25 01:00:00 11.4 7 Noroeste 18 Noroeste 0 -- -- 94
2020-03-25 00:00:00 11.5 9 Noroeste 21 Norte 0 -- -- 91
2020-03-24 23:00:00 11.3 4 Oeste 26 Noroeste 0 -- -- 92
2020-03-24 22:00:00 11.4 10 Noroeste 23 Norte 0 -- -- 94
2020-03-24 21:00:00 11.5 12 Norte 26 Noroeste 0 -- -- 95
2020-03-24 20:00:00 11.8 7 Noroeste 23 Norte 0 -- -- 94
2020-03-24 19:00:00 11.9 13 Norte 26 Norte 0 -- -- 92
2020-03-24 18:00:00 12.5 10 Noroeste 24 Noroeste 0 -- -- 88
2020-03-24 17:00:00 13.2 9 Noroeste 24 Noroeste 0 -- -- 85
2020-03-24 16:00:00 13.7 8 Noroeste 27 Noroeste 0 -- -- 83
2020-03-24 15:00:00 14.5 10 Noroeste 30 Oeste 0 -- -- 73
2020-03-24 14:00:00 16.3 13 Norte 27 Norte 0 -- -- 66
2020-03-24 13:00:00 15.6 13 Noroeste 33 Noroeste 0 -- -- 72
2020-03-24 12:00:00 15.6 13 Noroeste 33 Noroeste 0 -- -- 69
2020-03-24 11:00:00 14.4 17 Noroeste 28 Noroeste 0 -- -- 83
2020-03-24 10:00:00 11.3 13 Norte 36 Norte 0.2 -- -- 96
2020-03-24 09:00:00 11.8 10 Norte 32 Norte 0 -- -- 93
2020-03-24 08:00:00 11.2 13 Noroeste 29 Noroeste 0 -- -- 97
2020-03-24 07:00:00 10.7 9 Noroeste 33 Noroeste 0 -- -- 96
2020-03-24 06:00:00 10.7 16 Noroeste 30 Noroeste 0.8 -- -- 97
2020-03-24 05:00:00 11.2 12 Norte 35 Noroeste 0 -- -- 98
2020-03-24 04:00:00 10.9 16 Noroeste 39 Noroeste 0 -- -- 98
2020-03-24 03:00:00 11 13 Norte 36 Noroeste 0 -- -- 96
2020-03-24 02:00:00 11 13 Noroeste 34 Noroeste 0 -- -- 98
2020-03-24 01:00:00 10.9 13 Noroeste 42 Norte 0 -- -- 98
2020-03-24 00:00:00 11.2 22 Norte 39 Norte 1.6 -- -- 98
2020-03-23 23:00:00 11.1 12 Noroeste 36 Noroeste 0 -- -- 96
2020-03-23 22:00:00 10.9 16 Norte 41 Noroeste 1.2 -- -- 97
2020-03-23 21:00:00 11.1 15 Noroeste 37 Oeste 0 -- -- 95
2020-03-23 20:00:00 10.7 12 Noroeste 35 Norte 0.8 -- -- 96
2020-03-23 19:00:00 11 10 Norte 31 Noroeste 0 -- -- 89
2020-03-23 18:00:00 11.3 13 Norte 38 Norte 0 -- -- 90
2020-03-23 17:00:00 11.7 20 Norte 38 Noroeste 0 -- -- 88
2020-03-23 16:00:00 12.6 19 Norte 40 Noroeste 0 -- -- 84
2020-03-23 15:00:00 11.4 17 Norte 43 Noroeste 2.2 -- -- 97
2020-03-23 14:00:00 12.8 19 Norte 44 Norte 0 -- -- 86
2020-03-23 13:00:00 12.5 19 Norte 37 Norte 0.2 -- -- 89
2020-03-23 12:00:00 10.4 21 Norte 42 Norte 1 -- -- 93
2020-03-23 11:00:00 10.1 22 Norte 41 Norte 2.6 -- -- 97
2020-03-23 10:00:00 10 23 Norte 43 Noroeste 0.8 -- -- 93
2020-03-23 09:00:00 9.5 14 Norte 40 Norte 0 -- -- 96
2020-03-23 08:00:00 9.1 18 Norte 50 Nordeste 0.2 -- -- 94
2020-03-23 07:00:00 8.9 29 Norte 56 Norte 0.2 -- -- 95
2020-03-23 06:00:00 8.7 20 Norte 57 Noroeste 4.4 -- -- 95
2020-03-23 05:00:00 9.1 19 Sudeste 41 Nordeste 0.2 -- -- 87
2020-03-23 04:00:00 9.5 18 Nordeste 41 Este 0 -- -- 89
2020-03-23 03:00:00 9.9 17 Este 36 Sudeste 0 -- -- 82
2020-03-23 02:00:00 9.5 12 Nordeste 29 Este 0 -- -- 87
2020-03-23 01:00:00 9.9 14 Nordeste 35 Norte 0.2 -- -- 94
2020-03-23 00:00:00 10.3 16 Este 29 Este 0 -- -- 86
2020-03-22 23:00:00 10.1 11 Sudeste 27 Nordeste 0 -- -- 87
2020-03-22 22:00:00 10.6 13 Sudeste 28 Este 0 -- -- 84
2020-03-22 21:00:00 10.3 7 Este 22 Nordeste 0 -- -- 83
2020-03-22 20:00:00 10 10 Este 38 Oeste 0.6 -- -- 91
2020-03-22 19:00:00 10.4 11 Norte 29 Noroeste 3.4 -- -- 98
2020-03-22 18:00:00 12.1 13 Norte 22 Norte 0 -- -- 91
2020-03-22 17:00:00 15.1 7 Norte 28 Noroeste 0 -- -- 66
2020-03-22 16:00:00 17.7 9 Norte 25 Noroeste 0 -- -- 52
2020-03-22 15:00:00 17.3 9 Norte 22 Noroeste 0 -- -- 60
2020-03-22 14:00:00 16.3 12 Norte 23 Norte 0 -- -- 65
2020-03-22 13:00:00 16.2 4 Norte 24 Noroeste 0 -- -- 58
2020-03-22 12:00:00 14.6 13 Norte 33 Noroeste 0 -- -- 66
2020-03-22 11:00:00 13.6 11 Norte 36 Noroeste 0 -- -- 76
2020-03-22 10:00:00 10.9 11 Norte 32 Noroeste 0.6 -- -- 94
2020-03-22 09:00:00 10.1 8 Norte 22 Norte 0.6 -- -- 93
2020-03-22 08:00:00 10.4 7 Nordeste 21 Este 0 -- -- 85
2020-03-22 07:00:00 9.6 8 Este 28 Noroeste 0 -- -- 89
2020-03-22 06:00:00 10.1 9 Norte 25 Noroeste 0 -- -- 89
2020-03-22 05:00:00 10 9 Noroeste 34 Noroeste 0 -- -- 93
2020-03-22 04:00:00 9.5 11 Noroeste 29 Oeste 0 -- -- 93
2020-03-22 03:00:00 10.3 8 Norte 30 Norte 0 -- -- 86
2020-03-22 02:00:00 10.2 6 Este 23 Noroeste 0 -- -- 85
2020-03-22 01:00:00 9.9 4 Sur 25 Norte 0 -- -- 82
2020-03-22 00:00:00 9.9 9 Noroeste 26 Norte 0 -- -- 86
2020-03-21 23:00:00 10.3 13 Norte 27 Norte 0 -- -- 97
2020-03-21 22:00:00 10.3 13 Norte 27 Norte 0 -- -- 96
2020-03-21 21:00:00 10 8 Oeste 22 Sudoeste 0.6 -- -- 93
2020-03-21 20:00:00 9.8 4 Oeste 20 Noroeste 0.2 -- -- 94
2020-03-21 19:00:00 10.7 8 Norte 22 Oeste 0 -- -- 81
2020-03-21 18:00:00 11.3 8 Noroeste 20 Norte 0 -- -- 73
2020-03-21 17:00:00 12.9 9 Norte 21 Nordeste 0 -- -- 65
2020-03-21 16:00:00 12.3 9 Norte 27 Norte 0 -- -- 78
2020-03-21 15:00:00 13.6 12 Norte 21 Norte 0 -- -- 68
2020-03-21 14:00:00 12.8 13 Norte 23 Nordeste 0 -- -- 75
2020-03-21 13:00:00 13 10 Norte 25 Nordeste 0 -- -- 77
2020-03-21 12:00:00 12.4 12 Norte 19 Norte 0 -- -- 76
2020-03-21 11:00:00 11.5 11 Norte 17 Nordeste 0 -- -- 86
2020-03-21 10:00:00 10.5 5 Norte 19 Norte 0.4 -- -- 93
2020-03-21 09:00:00 10.4 8 Norte 17 Norte 0 -- -- 83
2020-03-21 08:00:00 9.6 6 Norte 18 Norte 0 -- -- 88
2020-03-21 07:00:00 9.5 7 Norte 19 Norte 0 -- -- 91
2020-03-21 06:00:00 9.7 8 Noroeste 14 Norte 0 -- -- 85
2020-03-21 05:00:00 9.6 5 Noroeste 15 Norte 0 -- -- 87
2020-03-21 04:00:00 10.1 9 Norte 17 Norte 0 -- -- 92
2020-03-21 03:00:00 9.6 6 Noroeste 19 Norte 0 -- -- 93
2020-03-21 02:00:00 10.1 7 Norte 17 Norte 0 -- -- 99
2020-03-21 01:00:00 10.7 10 Norte 23 Norte 0 -- -- 99
2020-03-21 00:00:00 11 15 Norte 27 Norte 0 -- -- 99
2020-03-20 23:00:00 11.4 13 Norte 26 Norte 1.2 -- -- 99
2020-03-20 22:00:00 11.4 12 Norte 27 Noroeste 0.4 -- -- 99
2020-03-20 21:00:00 11.5 9 Norte 26 Nordeste 0.8 -- -- 99
2020-03-20 20:00:00 11.5 6 Norte 22 Norte 1.8 -- -- 98
2020-03-20 19:00:00 11.6 9 Norte 22 Norte 0 -- -- 97
2020-03-20 18:00:00 12 10 Noroeste 20 Norte 0.8 -- -- 95
2020-03-20 17:00:00 13.5 6 Noroeste 22 Noroeste 0 -- -- 80
2020-03-20 16:00:00 14.8 10 Norte 31 Norte 0 -- -- 75
2020-03-20 15:00:00 15.3 13 Norte 24 Norte 0 -- -- 74
2020-03-20 14:00:00 15.3 12 Norte 27 Norte 0 -- -- 80
2020-03-20 13:00:00 14.5 13 Norte 26 Norte 0 -- -- 84
2020-03-20 12:00:00 15.7 14 Norte 29 Norte 0 -- -- 72
2020-03-20 11:00:00 14.3 13 Norte 27 Norte 0 -- -- 80
2020-03-20 10:00:00 12.7 14 Noroeste 28 Noroeste 0 -- -- 91
2020-03-20 09:00:00 12.1 10 Norte 23 Noroeste 0 -- -- 89
2020-03-20 08:00:00 11.5 14 Norte 34 Noroeste 0.4 -- -- 98
2020-03-20 07:00:00 11.4 6 Noroeste 28 Noroeste 0 -- -- 95
2020-03-20 06:00:00 11.7 16 Norte 31 Norte 0 -- -- 98
2020-03-20 05:00:00 12.1 14 Norte 29 Norte 0 -- -- 99
2020-03-20 04:00:00 12 10 Norte 29 Norte 0.2 -- -- 99
2020-03-20 03:00:00 11.7 9 Noroeste 27 Norte 0 -- -- 98
2020-03-20 02:00:00 12 13 Norte 24 Noroeste 0.6 -- -- 98
2020-03-20 01:00:00 12 12 Norte 28 Noroeste 0.4 -- -- 98
2020-03-20 00:00:00 11.9 11 Noroeste 31 Norte 0 -- -- 98
2020-03-19 23:00:00 12 14 Norte 34 Norte 0.8 -- -- 98
2020-03-19 22:00:00 12.3 12 Norte 31 Noroeste 0 -- -- 98
2020-03-19 21:00:00 12.3 10 Norte 31 Norte 0 -- -- 97
2020-03-19 20:00:00 12.5 15 Norte 30 Norte 0 -- -- 97
2020-03-19 19:00:00 12.5 14 Norte 28 Noroeste 0 -- -- 95
2020-03-19 18:00:00 12.8 15 Noroeste 33 Noroeste 0 -- -- 93
2020-03-19 17:00:00 13.2 11 Norte 30 Noroeste 0 -- -- 90
2020-03-19 16:00:00 13.9 9 Noroeste 26 Noroeste 0 -- -- 84
2020-03-19 15:00:00 14.5 13 Norte 30 Norte 0 -- -- 76
2020-03-19 14:00:00 15.5 14 Norte 48 Noroeste 0 -- -- 63
2020-03-19 13:00:00 16.3 16 Noroeste 31 Noroeste 0 -- -- 57
2020-03-19 12:00:00 14.5 13 Noroeste 37 Noroeste 0 -- -- 76
2020-03-19 11:00:00 13 15 Norte 50 Norte 0 -- -- 94
2020-03-19 10:00:00 12.7 21 Norte 41 Noroeste 0.2 -- -- 97
2020-03-19 09:00:00 12.4 17 Norte 45 Norte 0.4 -- -- 98
2020-03-19 08:00:00 12 17 Noroeste 49 Noroeste 0 -- -- 97
2020-03-19 07:00:00 11.7 15 Norte 35 Noroeste 0.8 -- -- 97
2020-03-19 06:00:00 11.5 13 Norte 41 Norte 0.6 -- -- 97
2020-03-19 05:00:00 11.3 15 Noroeste 38 Noroeste 0 -- -- 95
2020-03-19 04:00:00 11.2 14 Noroeste 37 Norte 0 -- -- 95
2020-03-19 03:00:00 11.2 19 Noroeste 44 Noroeste 0.2 -- -- 96
2020-03-19 02:00:00 11.5 16 Noroeste 48 Noroeste 0.4 -- -- 97
2020-03-19 01:00:00 11.3 17 Noroeste 45 Noroeste 0 -- -- 92
2020-03-19 00:00:00 11.3 12 Oeste 37 Noroeste 0 -- -- 87
2020-03-18 23:00:00 11.2 15 Norte 38 Noroeste 0 -- -- 84
2020-03-18 22:00:00 10.8 15 Noroeste 42 Noroeste 0 -- -- 83
2020-03-18 21:00:00 10.9 17 Noroeste 39 Noroeste 0.2 -- -- 90
2020-03-18 20:00:00 11 19 Noroeste 48 Noroeste 0.2 -- -- 95
2020-03-18 19:00:00 11.2 15 Norte 43 Norte 0 -- -- 93
2020-03-18 18:00:00 11.8 16 Noroeste 43 Norte 0 -- -- 86
2020-03-18 17:00:00 12.1 14 Norte 41 Noroeste 0 -- -- 86
2020-03-18 16:00:00 12.9 15 Noroeste 36 Norte 0 -- -- 79
2020-03-18 15:00:00 13.8 18 Norte 39 Norte 0 -- -- 76
2020-03-18 14:00:00 15.3 15 Noroeste 31 Noroeste 0 -- -- 72
2020-03-18 13:00:00 13.8 15 Noroeste 32 Norte 0 -- -- 67
2020-03-18 12:00:00 13 12 Noroeste 33 Norte 0 -- -- 83
2020-03-18 11:00:00 14.2 13 Norte 27 Norte 0 -- -- 79
2020-03-18 10:00:00 10.5 12 Norte 27 Norte 0 -- -- 90
2020-03-18 09:00:00 11.4 14 Norte 38 Norte 0.2 -- -- 84
2020-03-18 08:00:00 10.6 12 Noroeste 26 Noroeste 0 -- -- 94
2020-03-18 07:00:00 9.3 10 Noroeste 31 Noroeste 0.8 -- -- 98
2020-03-18 06:00:00 9.6 9 Norte 32 Noroeste 0.4 -- -- 97
2020-03-18 05:00:00 8.9 9 Noroeste 28 Norte 1.2 -- -- 98
2020-03-18 04:00:00 9.4 15 Norte 30 Norte 0.2 -- -- 95
2020-03-18 03:00:00 9.4 8 Noroeste 22 Norte 0.2 -- -- 96
2020-03-18 02:00:00 9.6 12 Noroeste 26 Norte 0 -- -- 98
2020-03-18 01:00:00 9.8 9 Norte 24 Norte 0.4 -- -- 99
2020-03-18 00:00:00 9.7 13 Noroeste 24 Norte 1.6 -- -- 99
2020-03-17 23:00:00 9.7 14 Norte 26 Norte 2 -- -- 98
2020-03-17 22:00:00 9.9 10 Noroeste 26 Norte 0 -- -- 96
2020-03-17 21:00:00 10.5 9 Norte 24 Noroeste 0 -- -- 94
2020-03-17 20:00:00 10 9 Noroeste 27 Norte 0.2 -- -- 94
2020-03-17 19:00:00 10.3 9 Norte 22 Norte 0 -- -- 93
2020-03-17 18:00:00 11.4 9 Norte 28 Nordeste 0 -- -- 82
2020-03-17 17:00:00 11.7 10 Norte 24 Norte 0 -- -- 87
2020-03-17 16:00:00 11.5 11 Norte 21 Norte 0.2 -- -- 90
2020-03-17 15:00:00 12.2 8 Nordeste 23 Norte 0 -- -- 87
2020-03-17 14:00:00 11.2 13 Nordeste 29 Nordeste 0.2 -- -- 93
2020-03-17 13:00:00 12.1 12 Norte 27 Norte 0 -- -- 90
2020-03-17 12:00:00 11.4 9 Norte 31 Norte 0.8 -- -- 96
2020-03-17 11:00:00 11.5 6 Norte 23 Norte 0 -- -- 88
2020-03-17 10:00:00 9.8 5 Norte 22 Norte 0.4 -- -- 96
2020-03-17 09:00:00 9.6 3 Noroeste 23 Norte 0.4 -- -- 98
2020-03-17 08:00:00 9.2 5 Noroeste 17 Norte 0.4 -- -- 97
2020-03-17 07:00:00 9 12 Norte 21 Norte 0.4 -- -- 97
2020-03-17 06:00:00 9.1 8 Norte 26 Norte 1 -- -- 98
2020-03-17 05:00:00 8.7 6 Norte 27 Norte 1.6 -- -- 99
2020-03-17 04:00:00 9.2 6 Norte 26 Este 1 -- -- 98
2020-03-17 03:00:00 9.3 9 Norte 26 Norte 0.2 -- -- 97
2020-03-17 02:00:00 9.4 8 Norte 23 Norte 0 -- -- 88
2020-03-17 01:00:00 9.6 11 Norte 23 Norte 0 -- -- 86
2020-03-17 00:00:00 10 11 Norte 28 Norte 0.2 -- -- 93
2020-03-16 23:00:00 10.5 9 Norte 27 Norte 0.4 -- -- 98
2020-03-16 22:00:00 10.9 14 Norte 34 Norte 0.4 -- -- 98
2020-03-16 21:00:00 11.1 14 Norte 27 Norte 0 -- -- 98
2020-03-16 20:00:00 11.4 14 Norte 30 Nordeste 1 -- -- 98
2020-03-16 19:00:00 11.2 14 Norte 34 Norte 0.2 -- -- 98
2020-03-16 18:00:00 11.6 12 Norte 30 Nordeste 0 -- -- 95
2020-03-16 17:00:00 12.3 15 Norte 30 Norte 0.4 -- -- 95
2020-03-16 16:00:00 13.8 13 Norte 24 Norte 0 -- -- 77
2020-03-16 15:00:00 13.9 14 Norte 29 Nordeste 0 -- -- 78
2020-03-16 14:00:00 14.8 11 Norte 26 Nordeste 0 -- -- 71
2020-03-16 13:00:00 15.4 12 Norte 24 Norte 0 -- -- 69
2020-03-16 12:00:00 14.4 8 Norte 31 Nordeste 0 -- -- 73
2020-03-16 11:00:00 14.9 15 Nordeste 29 Norte 0 -- -- 68
2020-03-16 10:00:00 11.5 14 Norte 27 Norte 0.4 -- -- 88
2020-03-16 09:00:00 10.9 13 Norte 24 Norte 0.2 -- -- 98
2020-03-16 08:00:00 11.2 14 Norte 25 Norte 0.4 -- -- 98
2020-03-16 07:00:00 11 12 Norte 26 Norte 0 -- -- 98
2020-03-16 06:00:00 10.7 9 Norte 34 Norte 0.6 -- -- 98
2020-03-16 05:00:00 11.2 17 Norte 30 Norte 0 -- -- 98
2020-03-16 04:00:00 11.3 11 Norte 27 Nordeste 0 -- -- 98
2020-03-16 03:00:00 11.8 12 Norte 21 Nordeste 0.2 -- -- 98
2020-03-16 02:00:00 11.6 7 Norte 25 Norte 0 -- -- 98
2020-03-16 01:00:00 11.7 9 Nordeste 21 Nordeste 1 -- -- 97
2020-03-16 00:00:00 11.6 8 Norte 23 Norte 0 -- -- 96
2020-03-15 23:00:00 11.2 8 Norte 25 Noroeste 0.2 -- -- 95
2020-03-15 22:00:00 11.7 7 Norte 17 Noroeste 0 -- -- 95
2020-03-15 21:00:00 11.4 7 Noroeste 17 Noroeste 0 -- -- 93
2020-03-15 20:00:00 11.2 9 Norte 26 Norte 0 -- -- 95
2020-03-15 19:00:00 11.2 15 Norte 33 Norte 0 -- -- 96
2020-03-15 18:00:00 11.6 15 Norte 30 Nordeste 0 -- -- 92
2020-03-15 17:00:00 11.7 17 Norte 30 Norte 0 -- -- 95
2020-03-15 16:00:00 12 13 Norte 31 Noroeste 0 -- -- 92
2020-03-15 15:00:00 16 12 Norte 27 Nordeste 0 -- -- 62
2020-03-15 14:00:00 15.8 10 Norte 25 Norte 0 -- -- 62
2020-03-15 13:00:00 13.4 10 Norte 27 Norte 0 -- -- 82
2020-03-15 12:00:00 13.1 10 Norte 24 Noroeste 0 -- -- 80
2020-03-15 11:00:00 14.3 15 Norte 31 Norte 0 -- -- 75
2020-03-15 10:00:00 12.3 9 Norte 19 Noroeste 0 -- -- 87
2020-03-15 09:00:00 11 8 Norte 24 Norte 0 -- -- 97
2020-03-15 08:00:00 10.7 5 Noroeste 17 Noroeste 0 -- -- 95
2020-03-15 07:00:00 10.7 10 Norte 22 Nordeste 0 -- -- 98
2020-03-15 06:00:00 10.9 7 Norte 16 Noroeste 0.2 -- -- 97
2020-03-15 05:00:00 10.4 6 Noroeste 19 Norte 0.2 -- -- 96
2020-03-15 04:00:00 10.1 10 Noroeste 22 Norte 0.6 -- -- 96
2020-03-15 03:00:00 10.7 8 Norte 18 Nordeste 0 -- -- 96
2020-03-15 02:00:00 11.3 10 Norte 17 Norte 0.8 -- -- 96
2020-03-15 01:00:00 11.2 8 Noroeste 17 Norte 0 -- -- 91
2020-03-15 00:00:00 11.1 5 Noroeste 24 Sudoeste 0 -- -- 89
2020-03-14 23:00:00 10.8 10 Oeste 21 Sudoeste 0 -- -- 86
2020-03-14 22:00:00 10.7 8 Oeste 19 Oeste 0 -- -- 86
2020-03-14 21:00:00 10.9 6 Oeste 15 Oeste 0 -- -- 86
2020-03-14 20:00:00 10.5 7 Oeste 17 Oeste 0 -- -- 84
2020-03-14 19:00:00 11.2 6 Noroeste 15 Noroeste 0 -- -- 81
2020-03-14 18:00:00 13.2 9 Norte 20 Norte 0 -- -- 70
2020-03-14 17:00:00 13.7 9 Norte 18 Norte 0 -- -- 74
2020-03-14 16:00:00 14.5 10 Nordeste 18 Norte 0 -- -- 70
2020-03-14 15:00:00 14 11 Norte 19 Norte 0 -- -- 73
2020-03-14 14:00:00 13.5 10 Nordeste 22 Este 0 -- -- 79
2020-03-14 13:00:00 13.5 12 Norte 21 Nordeste 0 -- -- 85
2020-03-14 12:00:00 15.1 9 Este 19 Este 0 -- -- 72
2020-03-14 11:00:00 15 10 Nordeste 17 Este 0 -- -- 78
2020-03-14 10:00:00 14.7 5 Este 11 Nordeste 0 -- -- 77
2020-03-14 09:00:00 12.8 5 Noroeste 10 Noroeste 0 -- -- 82
2020-03-14 08:00:00 11.8 4 Norte 9 Norte 0 -- -- 94
2020-03-14 07:00:00 11.2 7 Norte 13 Norte 0 -- -- 94
2020-03-14 06:00:00 11.4 6 Norte 13 Norte 0 -- -- 97
2020-03-14 05:00:00 11.3 2 Este 13 Nordeste 0 -- -- 97
2020-03-14 04:00:00 11.5 5 Norte 13 Norte 0 -- -- 98
2020-03-14 03:00:00 11.6 8 Nordeste 14 Este 0 -- -- 98
2020-03-14 02:00:00 12.2 5 Nordeste 18 Nordeste 0 -- -- 98
2020-03-14 01:00:00 12.3 7 Nordeste 15 Nordeste 0 -- -- 97
2020-03-14 00:00:00 12.3 3 Nordeste 11 Nordeste 0 -- -- 94
2020-03-13 23:00:00 12.1 3 Noroeste 14 Norte 0 -- -- 93
2020-03-13 22:00:00 12.3 2 Norte 13 Norte 0 -- -- 94
2020-03-13 21:00:00 12.2 4 Norte 14 Norte 0 -- -- 93
2020-03-13 20:00:00 12.6 7 Norte 15 Norte 0 -- -- 93
2020-03-13 19:00:00 12.7 6 Norte 12 Norte 0 -- -- 88
2020-03-13 18:00:00 13.5 8 Norte 14 Norte 0 -- -- 84
2020-03-13 17:00:00 13.9 8 Nordeste 15 Nordeste 0 -- -- 85
2020-03-13 16:00:00 14.9 4 Norte 15 Norte 0 -- -- 83
2020-03-13 15:00:00 16.7 7 Nordeste 17 Este 0 -- -- 75
2020-03-13 14:00:00 18.3 8 Nordeste 15 Nordeste 0 -- -- 66
2020-03-13 13:00:00 18.2 7 Nordeste 17 Este 0 -- -- 68
2020-03-13 12:00:00 17.4 7 Nordeste 17 Nordeste 0 -- -- 72
2020-03-13 11:00:00 14.9 4 Este 14 Nordeste 0 -- -- 80
2020-03-13 10:00:00 14 3 Nordeste 10 Norte 0 -- -- 86
2020-03-13 09:00:00 12.8 4 Sudeste 10 Norte 0 -- -- 88
2020-03-13 08:00:00 11.9 0 Calma 8 Noroeste 0 -- -- 94
2020-03-13 07:00:00 11.6 2 Oeste 9 Nordeste 0 -- -- 95
2020-03-13 06:00:00 11.6 2 Noroeste 9 Nordeste 0 -- -- 95
2020-03-13 05:00:00 11.8 4 Norte 9 Nordeste 0 -- -- 96
2020-03-13 04:00:00 10.7 4 Noroeste 8 Noroeste 0 -- -- 95
2020-03-13 03:00:00 10.4 5 Noroeste 9 Noroeste 0 -- -- 93
2020-03-13 02:00:00 8.6 2 Oeste 4 Sudoeste 0 -- -- 68
2020-03-13 01:00:00 11.1 3 Noroeste 5 Oeste 0 -- -- 51
2020-03-13 00:00:00 11.2 2 Oeste 7 Sudoeste 0 -- -- 48
2020-03-12 23:00:00 14 3 Oeste 10 Oeste 0 -- -- 38
2020-03-12 22:00:00 13.2 4 Oeste 6 Oeste 0 -- -- 49
2020-03-12 21:00:00 13.2 4 Oeste 9 Oeste 0 -- -- 60
2020-03-12 20:00:00 12.9 5 Oeste 7 Oeste 0 -- -- 80
2020-03-12 19:00:00 14.6 5 Noroeste 8 Oeste 0 -- -- 53
2020-03-12 18:00:00 19.4 4 Oeste 8 Este 0 -- -- 68
2020-03-12 17:00:00 21.5 4 Este 13 Nordeste 0 -- -- 70
2020-03-12 16:00:00 22.5 6 Nordeste 14 Nordeste 0 -- -- 65
2020-03-12 15:00:00 24.6 6 Este 15 Este 0 -- -- 47
2020-03-12 14:00:00 23.4 9 Nordeste 20 Norte 0 -- -- 56
2020-03-12 13:00:00 27.9 12 Este 26 Este 0 -- -- 27
2020-03-12 12:00:00 27.6 12 Este 21 Nordeste 0 -- -- 23
2020-03-12 11:00:00 27.5 10 Este 22 Este 0 -- -- 19
2020-03-12 10:00:00 26 10 Sudeste 21 Sudeste 0 -- -- 14
2020-03-12 09:00:00 24.3 12 Sudeste 20 Sudeste 0 -- -- 14
2020-03-12 08:00:00 19 5 Sur 10 Sudoeste 0 -- -- 18
2020-03-12 07:00:00 15.6 7 Sudoeste 10 Sudoeste 0 -- -- 18
2020-03-12 06:00:00 16 6 Sudoeste 12 Sur 0 -- -- 19
2020-03-12 05:00:00 16.9 7 Sudoeste 12 Sudoeste 0 -- -- 15
2020-03-12 04:00:00 15.6 5 Sudoeste 11 Sudoeste 0 -- -- 18
2020-03-12 03:00:00 13.3 5 Sudoeste 8 Sur 0 -- -- 24
2020-03-12 02:00:00 12.5 4 Sudoeste 8 Oeste 0 -- -- 32
2020-03-12 01:00:00 13.8 6 Oeste 10 Oeste 0 -- -- 28
2020-03-12 00:00:00 14.1 4 Oeste 11 Oeste 0 -- -- 27
2020-03-11 23:00:00 14 6 Oeste 8 Oeste 0 -- -- 27
2020-03-11 22:00:00 14.1 4 Sudoeste 9 Oeste 0 -- -- 32
2020-03-11 21:00:00 14.8 7 Oeste 11 Oeste 0 -- -- 26
2020-03-11 20:00:00 15.2 8 Oeste 12 Oeste 0 -- -- 29
2020-03-11 19:00:00 17.4 8 Oeste 12 Oeste 0 -- -- 40
2020-03-11 18:00:00 22.3 0 Calma 9 Este 0 -- -- 57
2020-03-11 17:00:00 25.3 7 Nordeste 12 Nordeste 0 -- -- 34
2020-03-11 16:00:00 25.1 5 Este 9 Este 0 -- -- 32
2020-03-11 15:00:00 22.7 3 Norte 20 Nordeste 0 -- -- 45
2020-03-11 14:00:00 26.4 9 Este 25 Este 0 -- -- 32
2020-03-11 13:00:00 26.9 12 Este 27 Este 0 -- -- 19
2020-03-11 12:00:00 27.2 12 Este 23 Sudeste 0 -- -- 20
2020-03-11 11:00:00 22.2 5 Sur 12 Sur 0 -- -- 16
2020-03-11 10:00:00 19.3 2 Sur 9 Sudoeste 0 -- -- 25
2020-03-11 09:00:00 19.8 4 Sudoeste 10 Oeste 0 -- -- 22
2020-03-11 08:00:00 18.2 6 Sudoeste 11 Sudoeste 0 -- -- 20
2020-03-11 07:00:00 13.9 6 Sudoeste 9 Sudoeste 0 -- -- 20
2020-03-11 06:00:00 14 6 Sudoeste 10 Sudoeste 0 -- -- 22
2020-03-11 05:00:00 11.7 5 Sur 8 Sudoeste 0 -- -- 23
2020-03-11 04:00:00 11.2 5 Sudoeste 8 Sur 0 -- -- 26
2020-03-11 03:00:00 11.8 3 Sudoeste 6 Sudoeste 0 -- -- 28
2020-03-11 02:00:00 11 4 Sudoeste 7 Sudoeste 0 -- -- 25
2020-03-11 01:00:00 10.6 5 Sudoeste 7 Sudoeste 0 -- -- 31
2020-03-11 00:00:00 10.5 4 Sudoeste 8 Sudoeste 0 -- -- 37
2020-03-10 23:00:00 11.2 5 Oeste 8 Oeste 0 -- -- 45
2020-03-10 22:00:00 12.1 4 Oeste 6 Oeste 0 -- -- 48
2020-03-10 21:00:00 12.3 5 Noroeste 10 Oeste 0 -- -- 52
2020-03-10 20:00:00 13.4 8 Noroeste 13 Oeste 0 -- -- 48
2020-03-10 19:00:00 14.2 2 Sur 8 Oeste 0 -- -- 53
2020-03-10 18:00:00 19.2 0 Calma 8 Nordeste 0 -- -- 72
2020-03-10 17:00:00 21.1 5 Nordeste 11 Nordeste 0 -- -- 67
2020-03-10 16:00:00 21.8 5 Nordeste 13 Este 0 -- -- 62
2020-03-10 15:00:00 22.4 8 Nordeste 13 Nordeste 0 -- -- 61
2020-03-10 14:00:00 21.6 6 Nordeste 15 Nordeste 0 -- -- 62
2020-03-10 13:00:00 21.9 6 Nordeste 15 Nordeste 0 -- -- 60
2020-03-10 12:00:00 23.1 8 Este 13 Este 0 -- -- 55
2020-03-10 11:00:00 24.1 5 Sudeste 10 Sudeste 0 -- -- 32
2020-03-10 10:00:00 23.6 5 Este 9 Este 0 -- -- 31
2020-03-10 09:00:00 23.7 4 Sudeste 10 Sur 0 -- -- 12
2020-03-10 08:00:00 16.8 6 Sudoeste 12 Sur 0 -- -- 16
2020-03-10 07:00:00 14.8 7 Sudoeste 14 Sudeste 0 -- -- 16
2020-03-10 06:00:00 13.2 5 Sur 11 Sur 0 -- -- 24
2020-03-10 05:00:00 15 6 Sudoeste 12 Sudoeste 0 -- -- 21
2020-03-10 04:00:00 15.5 8 Sudoeste 13 Sudoeste 0 -- -- 23
2020-03-10 03:00:00 10 5 Sudoeste 8 Sudoeste 0 -- -- 44
2020-03-10 02:00:00 11.1 2 Sudoeste 9 Sur 0 -- -- 43
2020-03-10 01:00:00 14.9 5 Sudoeste 11 Sudoeste 0 -- -- 35
2020-03-10 00:00:00 14.4 6 Sudoeste 11 Sudoeste 0 -- -- 34
2020-03-09 23:00:00 11.9 2 Sur 13 Sudoeste 0 -- -- 46
2020-03-09 22:00:00 13.6 4 Sudoeste 10 Sur 0 -- -- 42
2020-03-09 21:00:00 13.1 4 Noroeste 10 Sur 0 -- -- 56
2020-03-09 20:00:00 14 4 Sudoeste 10 Sudoeste 0 -- -- 44
2020-03-09 19:00:00 14.1 4 Sur 10 Sudoeste 0 -- -- 73
2020-03-09 18:00:00 19.1 2 Nordeste 10 Sudeste 0 -- -- 71
2020-03-09 17:00:00 22.4 4 Sudeste 14 Este 0 -- -- 53
2020-03-09 16:00:00 21 8 Nordeste 18 Nordeste 0 -- -- 60
2020-03-09 15:00:00 24.2 8 Este 23 Nordeste 0 -- -- 41
2020-03-09 14:00:00 24.7 12 Este 26 Este 0 -- -- 23
2020-03-09 13:00:00 24.9 13 Este 32 Sudeste 0 -- -- 25
2020-03-09 12:00:00 24.8 16 Este 32 Este 0 -- -- 23
2020-03-09 11:00:00 23 17 Sudeste 38 Este 0 -- -- 24
2020-03-09 10:00:00 22.4 14 Sudeste 23 Sudeste 0 -- -- 27
2020-03-09 09:00:00 19.1 5 Sudeste 13 Sudeste 0 -- -- 46
2020-03-09 08:00:00 16 6 Sudoeste 14 Sur 0 -- -- 35
2020-03-09 07:00:00 14.7 7 Sur 12 Sur 0 -- -- 34
2020-03-09 06:00:00 14.1 7 Sudoeste 14 Sur 0 -- -- 36
2020-03-09 05:00:00 14.3 6 Sur 17 Sudeste 0 -- -- 36
2020-03-09 04:00:00 14.3 6 Sur 16 Sur 0 -- -- 44
2020-03-09 03:00:00 11.4 4 Sudoeste 9 Sur 0 -- -- 60
2020-03-09 02:00:00 12.4 7 Sudoeste 10 Sudeste 0 -- -- 58
2020-03-09 01:00:00 10.7 4 Noroeste 10 Noroeste 0 -- -- 62
2020-03-09 00:00:00 10.2 3 Sudoeste 8 Oeste 0 -- -- 69
2020-03-08 23:00:00 10.8 3 Oeste 7 Oeste 0 -- -- 68
2020-03-08 22:00:00 12.5 0 Calma 9 Sudoeste 0 -- -- 52
2020-03-08 21:00:00 12.2 2 Noroeste 8 Sur 0 -- -- 50
2020-03-08 20:00:00 14.7 5 Sudoeste 8 Sudoeste 0 -- -- 36
2020-03-08 19:00:00 18.1 5 Sur 13 Sudeste 0 -- -- 32
2020-03-08 18:00:00 21.6 8 Sur 15 Sur 0 -- -- 31
2020-03-08 17:00:00 22.3 5 Sudeste 10 Sudeste 0 -- -- 60
2020-03-08 16:00:00 21.1 4 Este 13 Nordeste 0 -- -- 67
2020-03-08 15:00:00 21.2 7 Este 15 Este 0 -- -- 65
2020-03-08 14:00:00 20.2 8 Este 16 Este 0 -- -- 69
2020-03-08 13:00:00 22.4 7 Este 19 Sudeste 0 -- -- 58
2020-03-08 12:00:00 23.8 10 Sudeste 19 Sur 0 -- -- 44
2020-03-08 11:00:00 21 6 Este 13 Este 0 -- -- 64
2020-03-08 10:00:00 23.3 6 Sudeste 12 Este 0 -- -- 39
2020-03-08 09:00:00 21.8 6 Sudeste 11 Sudeste 0 -- -- 34
2020-03-08 08:00:00 15 7 Sudoeste 10 Sudoeste 0 -- -- 46
2020-03-08 07:00:00 10.3 7 Sudoeste 9 Sudoeste 0 -- -- 66
2020-03-08 06:00:00 9 4 Sudoeste 11 Sudoeste 0 -- -- 92
2020-03-08 05:00:00 8.6 3 Sudoeste 10 Oeste 0 -- -- 88
2020-03-08 04:00:00 9.3 3 Oeste 8 Oeste 0 -- -- 96
2020-03-08 03:00:00 11.6 3 Oeste 9 Norte 0 -- -- 97
2020-03-08 02:00:00 11.8 4 Norte 11 Norte 0 -- -- 96
2020-03-08 01:00:00 11.9 5 Norte 21 Noroeste 0 -- -- 96
2020-03-08 00:00:00 11.5 7 Noroeste 21 Noroeste 0 -- -- 95
2020-03-07 23:00:00 12.1 5 Noroeste 13 Noroeste 0 -- -- 94
2020-03-07 22:00:00 12 6 Norte 16 Noroeste 0 -- -- 93
2020-03-07 21:00:00 12 7 Noroeste 15 Norte 0 -- -- 93
2020-03-07 20:00:00 12 5 Oeste 12 Noroeste 0 -- -- 91
2020-03-07 19:00:00 12.2 6 Norte 14 Norte 0 -- -- 89
2020-03-07 18:00:00 12.9 6 Norte 14 Norte 0 -- -- 87
2020-03-07 17:00:00 13.4 8 Norte 17 Nordeste 0 -- -- 85
2020-03-07 16:00:00 15.6 9 Norte 21 Nordeste 0 -- -- 75
2020-03-07 15:00:00 16.3 10 Nordeste 20 Norte 0 -- -- 72
2020-03-07 14:00:00 15.8 11 Norte 24 Norte 0 -- -- 73
2020-03-07 13:00:00 15.9 8 Nordeste 17 Norte 0 -- -- 71
2020-03-07 12:00:00 16.1 9 Norte 22 Nordeste 0 -- -- 72
2020-03-07 11:00:00 16.4 8 Nordeste 19 Norte 0 -- -- 72
2020-03-07 10:00:00 13.5 8 Nordeste 15 Norte 0 -- -- 82
2020-03-07 09:00:00 12.1 4 Nordeste 8 Noroeste 0 -- -- 90
2020-03-07 08:00:00 11.1 3 Oeste 8 Oeste 0 -- -- 90
2020-03-07 07:00:00 10.8 2 Sudeste 8 Sur 0 -- -- 90
2020-03-07 06:00:00 10.8 3 Este 12 Noroeste 0 -- -- 92
2020-03-07 05:00:00 10.7 2 Sudoeste 16 Sudeste 0 -- -- 92
2020-03-07 04:00:00 10.7 5 Nordeste 12 Nordeste 0 -- -- 87
2020-03-07 03:00:00 10.7 2 Sur 12 Norte 0 -- -- 93
2020-03-07 02:00:00 10.8 4 Sudeste 13 Nordeste 0 -- -- 91
2020-03-07 01:00:00 10.6 3 Nordeste 15 Norte 0 -- -- 90
2020-03-07 00:00:00 10.8 5 Nordeste 10 Norte 0 -- -- 88
2020-03-06 23:00:00 11 5 Norte 13 Norte 0 -- -- 89
2020-03-06 22:00:00 11 0 Calma 17 Nordeste 0 -- -- 87
2020-03-06 21:00:00 11.2 10 Nordeste 20 Norte 0 -- -- 87
2020-03-06 20:00:00 11.3 7 Nordeste 16 Nordeste 0 -- -- 88
2020-03-06 19:00:00 11.4 8 Nordeste 21 Norte 0 -- -- 88
2020-03-06 18:00:00 12.6 5 Nordeste 22 Este 0 -- -- 88
2020-03-06 17:00:00 12.4 12 Nordeste 22 Nordeste 0 -- -- 86
2020-03-06 16:00:00 13.1 9 Nordeste 22 Nordeste 0 -- -- 81
2020-03-06 15:00:00 13.2 11 Nordeste 25 Nordeste 0 -- -- 83
2020-03-06 14:00:00 12.4 9 Nordeste 21 Norte 0 -- -- 86
2020-03-06 13:00:00 13.3 11 Nordeste 26 Este 0 -- -- 83
2020-03-06 12:00:00 12.1 8 Nordeste 20 Nordeste 0 -- -- 94
2020-03-06 11:00:00 11.6 7 Nordeste 19 Este 0 -- -- 97
2020-03-06 10:00:00 11 9 Nordeste 17 Nordeste 0 -- -- 98
2020-03-06 09:00:00 10.9 8 Nordeste 23 Norte 0.6 -- -- 99
2020-03-06 08:00:00 10.6 7 Nordeste 28 Nordeste 0.4 -- -- 99
2020-03-06 07:00:00 11.3 15 Norte 26 Nordeste 2.4 -- -- 98
2020-03-06 06:00:00 12.6 10 Nordeste 22 Nordeste 2.2 -- -- 99
2020-03-06 05:00:00 12.6 10 Nordeste 22 Norte 2.2 -- -- 99
2020-03-06 04:00:00 13 13 Norte 23 Nordeste 3 -- -- 98
2020-03-06 03:00:00 12.7 2 Sudoeste 8 Sur 1.2 -- -- 97
2020-03-06 02:00:00 12.4 2 Noroeste 14 Nordeste 0.4 -- -- 95
2020-03-06 01:00:00 12.5 4 Norte 25 Nordeste 0 -- -- 94
2020-03-06 00:00:00 12.6 7 Nordeste 16 Este 0 -- -- 96
2020-03-05 23:00:00 12.3 3 Nordeste 15 Nordeste 0.2 -- -- 96
2020-03-05 22:00:00 12.2 2 Sur 14 Norte 0 -- -- 95
2020-03-05 21:00:00 12.4 8 Norte 14 Norte 0 -- -- 93
2020-03-05 20:00:00 12.9 3 Norte 12 Norte 0 -- -- 92
2020-03-05 19:00:00 13.5 2 Norte 17 Sur 0 -- -- 86
2020-03-05 18:00:00 14.1 10 Norte 17 Norte 0 -- -- 82
2020-03-05 17:00:00 15.8 7 Nordeste 17 Norte 0 -- -- 78
2020-03-05 16:00:00 16.6 9 Norte 17 Norte 0 -- -- 73
2020-03-05 15:00:00 16.7 12 Nordeste 20 Norte 0 -- -- 71
2020-03-05 14:00:00 18.1 9 Nordeste 17 Nordeste 0 -- -- 67
2020-03-05 13:00:00 17.4 9 Norte 22 Norte 0 -- -- 73
2020-03-05 12:00:00 18 10 Nordeste 19 Norte 0 -- -- 73
2020-03-05 11:00:00 18.7 6 Nordeste 16 Norte 0 -- -- 67
2020-03-05 10:00:00 14.6 6 Noroeste 15 Norte 0 -- -- 86
2020-03-05 09:00:00 13.2 4 Norte 14 Norte 0 -- -- 95
2020-03-05 08:00:00 11.7 4 Oeste 9 Noroeste 0 -- -- 98
2020-03-05 07:00:00 10.9 4 Noroeste 12 Sudoeste 0 -- -- 95
2020-03-05 06:00:00 10.7 4 Noroeste 10 Norte 0 -- -- 97
2020-03-05 05:00:00 9.9 4 Oeste 8 Sur 0 -- -- 95
2020-03-05 04:00:00 9.5 0 Calma 9 Norte 0 -- -- 93
2020-03-05 03:00:00 11.3 4 Norte 8 Norte 0 -- -- 92
2020-03-05 02:00:00 10.8 2 Noroeste 9 Sudoeste 0 -- -- 61
2020-03-05 01:00:00 13.4 4 Sudoeste 8 Oeste 0 -- -- 46
2020-03-05 00:00:00 13.1 5 Oeste 10 Noroeste 0 -- -- 51
2020-03-04 23:00:00 13.9 6 Oeste 11 Oeste 0 -- -- 47
2020-03-04 22:00:00 14.3 6 Oeste 10 Oeste 0 -- -- 44
2020-03-04 21:00:00 14 8 Oeste 11 Oeste 0 -- -- 50
2020-03-04 20:00:00 13.2 5 Sudoeste 8 Sudoeste 0 -- -- 57
2020-03-04 19:00:00 14.2 2 Sur 6 Sudoeste 0 -- -- 67
2020-03-04 18:00:00 19.6 2 Sudeste 8 Nordeste 0 -- -- 51
2020-03-04 17:00:00 23.1 4 Este 12 Sudeste 0 -- -- 48
2020-03-04 16:00:00 22.6 6 Nordeste 12 Este 0 -- -- 59
2020-03-04 15:00:00 22.4 6 Nordeste 13 Este 0 -- -- 61
2020-03-04 14:00:00 23 6 Nordeste 15 Este 0 -- -- 56
2020-03-04 13:00:00 23.5 7 Este 15 Nordeste 0 -- -- 53
2020-03-04 12:00:00 25.3 8 Nordeste 16 Nordeste 0 -- -- 33
2020-03-04 11:00:00 25.5 8 Este 13 Este 0 -- -- 33
2020-03-04 10:00:00 24.4 6 Este 11 Este 0 -- -- 30
2020-03-04 09:00:00 23.3 4 Sudeste 6 Sudeste 0 -- -- 30
2020-03-04 08:00:00 15.4 3 Sur 8 Sur 0 -- -- 40
2020-03-04 07:00:00 11.3 4 Sudoeste 11 Sudoeste 0 -- -- 48
2020-03-04 06:00:00 11.6 5 Sudoeste 11 Sudoeste 0 -- -- 44
2020-03-04 05:00:00 12 5 Sudoeste 10 Sudoeste 0 -- -- 41
2020-03-04 04:00:00 13.3 5 Sudoeste 11 Sudeste 0 -- -- 42
2020-03-04 03:00:00 13.9 5 Sur 12 Sur 0 -- -- 41
2020-03-04 02:00:00 14.2 6 Sur 13 Sudeste 0 -- -- 45
2020-03-04 01:00:00 14.5 6 Sur 10 Sur 0 -- -- 47
2020-03-04 00:00:00 13.5 4 Sur 12 Sur 0 -- -- 56
2020-03-03 23:00:00 15.3 6 Sur 14 Sur 0 -- -- 50
2020-03-03 22:00:00 14.5 6 Sur 10 Sur 0 -- -- 57
2020-03-03 21:00:00 11.1 4 Oeste 10 Sudoeste 0 -- -- 87
2020-03-03 20:00:00 11.5 3 Sudoeste 5 Sudoeste 0 -- -- 97
2020-03-03 19:00:00 12 0 Calma 3 Este 0 -- -- 94
2020-03-03 18:00:00 17.6 2 Este 10 Norte 0 -- -- 74
2020-03-03 17:00:00 18.7 6 Nordeste 12 Nordeste 0 -- -- 71
2020-03-03 16:00:00 19.2 6 Nordeste 15 Nordeste 0 -- -- 68
2020-03-03 15:00:00 20.1 6 Nordeste 18 Nordeste 0 -- -- 65
2020-03-03 14:00:00 19.2 9 Nordeste 16 Nordeste 0 -- -- 69
2020-03-03 13:00:00 19.3 6 Nordeste 14 Nordeste 0 -- -- 70
2020-03-03 12:00:00 19.8 7 Nordeste 15 Este 0 -- -- 68
2020-03-03 11:00:00 18.8 5 Este 14 Este 0 -- -- 71
2020-03-03 10:00:00 17.4 4 Sudeste 9 Sudeste 0 -- -- 77
2020-03-03 09:00:00 12.5 3 Sur 9 Sudeste 0 -- -- 99
2020-03-03 08:00:00 12 3 Sur 7 Sur 0 -- -- 99
2020-03-03 07:00:00 11.6 3 Sudoeste 8 Oeste 0 -- -- 99
2020-03-03 06:00:00 12 0 Calma 7 Sudeste 0 -- -- 99
2020-03-03 05:00:00 12 0 Calma 7 Oeste 0 -- -- 99
2020-03-03 04:00:00 10 2 Oeste 8 Oeste 0 -- -- 99
2020-03-03 03:00:00 8.2 3 Oeste 6 Oeste 0 -- -- 98
2020-03-03 02:00:00 8.7 2 Sur 6 Oeste 0 -- -- 98
2020-03-03 01:00:00 9.1 3 Oeste 9 Sudoeste 0 -- -- 97
2020-03-03 00:00:00 10.9 3 Este 8 Norte 0 -- -- 97
2020-03-02 23:00:00 10.6 4 Nordeste 13 Sudoeste 0 -- -- 91
2020-03-02 22:00:00 10.5 3 Sudoeste 10 Norte 0 -- -- 94
2020-03-02 21:00:00 12.8 5 Nordeste 14 Nordeste 0 -- -- 95
2020-03-02 20:00:00 13.4 8 Nordeste 16 Norte 0 -- -- 94
2020-03-02 19:00:00 13.8 4 Noroeste 17 Nordeste 0 -- -- 88
2020-03-02 18:00:00 14.8 6 Norte 17 Norte 0 -- -- 84
2020-03-02 17:00:00 17.5 10 Norte 20 Norte 0 -- -- 69
2020-03-02 16:00:00 17.9 12 Norte 19 Norte 0 -- -- 66
2020-03-02 15:00:00 18.3 11 Nordeste 20 Nordeste 0 -- -- 61
2020-03-02 14:00:00 17.2 10 Norte 22 Norte 0 -- -- 67
2020-03-02 13:00:00 16.8 11 Norte 21 Norte 0 -- -- 72
2020-03-02 12:00:00 18.4 10 Norte 25 Norte 0 -- -- 66
2020-03-02 11:00:00 18.5 10 Norte 17 Norte 0 -- -- 67
2020-03-02 10:00:00 14.9 4 Noroeste 15 Norte 0 -- -- 80
2020-03-02 09:00:00 14.1 7 Noroeste 14 Noroeste 0 -- -- 84
2020-03-02 08:00:00 12 4 Oeste 13 Oeste 0 -- -- 88
2020-03-02 07:00:00 12 5 Noroeste 18 Oeste 0 -- -- 89
2020-03-02 06:00:00 11.6 5 Oeste 18 Noroeste 0 -- -- 91
2020-03-02 05:00:00 10.6 6 Noroeste 18 Noroeste 0 -- -- 91
2020-03-02 04:00:00 12.1 5 Noroeste 15 Noroeste 0 -- -- 92
2020-03-02 03:00:00 12 5 Noroeste 12 Norte 0 -- -- 93
2020-03-02 02:00:00 11.9 6 Noroeste 10 Oeste 0 -- -- 91
2020-03-02 01:00:00 12.5 4 Noroeste 16 Noroeste 0 -- -- 91
2020-03-02 00:00:00 12.5 8 Noroeste 17 Noroeste 0 -- -- 93
2020-03-01 23:00:00 11.3 8 Noroeste 13 Norte 0 -- -- 96
2020-03-01 22:00:00 11.2 2 Oeste 9 Norte 0 -- -- 93
2020-03-01 21:00:00 10.7 5 Noroeste 17 Noroeste 0 -- -- 93
2020-03-01 20:00:00 11.9 8 Noroeste 13 Noroeste 0 -- -- 95
2020-03-01 19:00:00 11.5 2 Oeste 13 Norte 0 -- -- 91
2020-03-01 18:00:00 14.6 8 Norte 20 Norte 0 -- -- 83
2020-03-01 17:00:00 17.7 8 Nordeste 21 Norte 0 -- -- 73
2020-03-01 16:00:00 18 13 Norte 20 Norte 0 -- -- 73
2020-03-01 15:00:00 20.9 6 Nordeste 19 Nordeste 0 -- -- 61
2020-03-01 14:00:00 19.9 8 Nordeste 16 Nordeste 0 -- -- 63
2020-03-01 13:00:00 20.2 9 Nordeste 15 Este 0 -- -- 63
2020-03-01 12:00:00 19.8 8 Este 15 Nordeste 0 -- -- 64
2020-03-01 11:00:00 20.2 5 Nordeste 10 Nordeste 0 -- -- 64
2020-03-01 10:00:00 17.3 5 Nordeste 14 Noroeste 0 -- -- 74
2020-03-01 09:00:00 11.9 6 Norte 14 Noroeste 0 -- -- 96
2020-03-01 08:00:00 9.2 3 Norte 11 Nordeste 0 -- -- 94
2020-03-01 07:00:00 10.5 4 Oeste 12 Oeste 0 -- -- 63
2020-03-01 06:00:00 10.2 5 Sudoeste 11 Oeste 0 -- -- 63
2020-03-01 05:00:00 8.8 5 Oeste 10 Norte 0 -- -- 88
2020-03-01 04:00:00 7.8 4 Oeste 10 Norte 0 -- -- 89
2020-03-01 03:00:00 10.9 4 Noroeste 11 Noroeste 0 -- -- 96
2020-03-01 02:00:00 9.5 3 Sudoeste 6 Oeste 0 -- -- 69
2020-03-01 01:00:00 11.3 4 Oeste 8 Noroeste 0 -- -- 45
2020-03-01 00:00:00 11.4 5 Sudoeste 9 Sudoeste 0 -- -- 42
2020-02-29 23:00:00 11.2 2 Oeste 8 Noroeste 0 -- -- 40
2020-02-29 22:00:00 11.6 4 Noroeste 10 Oeste 0 -- -- 38
2020-02-29 21:00:00 10.5 4 Sudoeste 14 Sudoeste 0 -- -- 43
2020-02-29 20:00:00 9.2 4 Sudoeste 9 Noroeste 0 -- -- 91
2020-02-29 19:00:00 10.6 0 Calma 10 Oeste 0 -- -- 70
2020-02-29 18:00:00 16.6 3 Noroeste 10 Nordeste 0 -- -- 58
2020-02-29 17:00:00 16.4 6 Nordeste 12 Nordeste 0 -- -- 77
2020-02-29 16:00:00 20.5 4 Este 11 Este 0 -- -- 46
2020-02-29 15:00:00 21 5 Nordeste 13 Nordeste 0 -- -- 34
2020-02-29 14:00:00 20.7 5 Este 13 Nordeste 0 -- -- 58
2020-02-29 13:00:00 18.5 7 Nordeste 13 Nordeste 0 -- -- 67
2020-02-29 12:00:00 19.1 6 Este 11 Este 0 -- -- 62
2020-02-29 11:00:00 19.9 5 Este 11 Este 0 -- -- 62
2020-02-29 10:00:00 17.2 3 Nordeste 10 Este 0 -- -- 69
2020-02-29 09:00:00 14.9 4 Norte 9 Nordeste 0 -- -- 78
2020-02-29 08:00:00 8.7 3 Sur 8 Norte 0 -- -- 97
2020-02-29 07:00:00 6.8 3 Noroeste 8 Oeste 0 -- -- 80
2020-02-29 06:00:00 6.7 3 Oeste 8 Oeste 0 -- -- 94
2020-02-29 05:00:00 7.5 4 Oeste 9 Oeste 0 -- -- 97
2020-02-29 04:00:00 8.7 6 Noroeste 13 Noroeste 0 -- -- 94
2020-02-29 03:00:00 10.3 3 Sudoeste 22 Noroeste 0 -- -- 90
2020-02-29 02:00:00 11.3 7 Oeste 26 Noroeste 0 -- -- 91
2020-02-29 01:00:00 11.5 10 Oeste 24 Noroeste 0 -- -- 90
2020-02-29 00:00:00 11.8 12 Oeste 27 Noroeste 0 -- -- 91